Time;durP1;ratioP1;P1;durP2;ratioP2;P2;SDS_P1;SDS_P2;PMS_P1;PMS_P2;Temp;Humidity;BMP_temperature;BMP_pressure;BME280_temperature;BME280_humidity;BME280_pressure;Samples;Min_cycle;Max_cycle;Signal;HPM_P1;HPM_P2
2023/01/19 00:00:28;;;;;;;7.82;1.33;;;;;;;20.29;34.38;99652.41;5020009;28;20060;-74
2023/01/19 00:02:53;;;;;;;2.03;1.30;;;;;;;20.35;34.47;99662.13;5035703;28;20095;-74
2023/01/19 00:05:19;;;;;;;1.65;1.38;;;;;;;20.29;34.55;99662.16;5040562;28;20040;-74
2023/01/19 00:07:45;;;;;;;1.42;1.10;;;;;;;20.25;34.52;99664.41;5040530;28;20467;-74
2023/01/19 00:10:11;;;;;;;2.53;1.23;;;;;;;20.20;34.36;99651.03;5041116;28;20184;-74
2023/01/19 00:12:36;;;;;;;2.03;0.90;;;;;;;20.27;34.51;99667.66;5049364;28;20105;-74
2023/01/19 00:15:02;;;;;;;3.83;1.13;;;;;;;20.25;34.52;99659.13;5043186;28;20652;-74
2023/01/19 00:17:28;;;;;;;2.45;1.20;;;;;;;20.22;34.66;99655.06;5032526;28;20509;-74
2023/01/19 00:19:53;;;;;;;2.00;1.10;;;;;;;20.27;34.55;99658.91;5040738;28;20037;-73
2023/01/19 00:22:19;;;;;;;2.15;1.10;;;;;;;20.26;34.51;99658.09;5041512;28;20071;-74
2023/01/19 00:24:44;;;;;;;1.48;1.10;;;;;;;20.22;34.70;99660.34;5035115;28;20029;-74
2023/01/19 00:27:10;;;;;;;2.38;1.20;;;;;;;20.20;34.62;99666.88;5024513;28;20635;-74
2023/01/19 00:29:36;;;;;;;1.00;0.93;;;;;;;20.14;34.78;99659.78;5037100;28;20049;-74
2023/01/19 00:32:03;;;;;;;2.50;1.02;;;;;;;20.18;34.69;99663.63;5044387;28;20044;-74
2023/01/19 00:34:35;;;;;;;2.05;1.08;;;;;;;20.19;34.67;99670.53;5037573;28;20120;-74
2023/01/19 00:37:05;;;;;;;0.88;0.50;;;;;;;20.17;34.88;99668.13;5039333;28;20582;-73
2023/01/19 00:39:31;;;;;;;1.15;0.80;;;;;;;20.18;34.63;99663.63;5040209;28;20037;-74
2023/01/19 00:44:40;;;;;;;1.08;1.05;;;;;;;20.21;34.64;99669.31;5040682;28;20055;-74
2023/01/19 00:47:06;;;;;;;0.90;0.75;;;;;;;20.08;34.78;99645.56;5041871;28;20044;-74
2023/01/19 00:49:31;;;;;;;1.48;1.20;;;;;;;20.08;34.87;99666.72;5041667;28;20067;-74
2023/01/19 00:51:57;;;;;;;2.70;1.65;;;;;;;20.12;34.85;99673.22;5025137;28;20032;-74
2023/01/19 00:54:22;;;;;;;1.60;0.90;;;;;;;20.14;34.71;99679.09;5025177;28;20087;-74
2023/01/19 00:56:48;;;;;;;2.88;1.20;;;;;;;20.16;34.61;99679.72;5041796;28;20099;-74
2023/01/19 00:59:13;;;;;;;1.33;0.93;;;;;;;20.07;34.95;99670.38;5035041;28;20025;-74
2023/01/19 01:01:39;;;;;;;1.73;0.80;;;;;;;20.12;34.84;99675.88;5042438;28;20045;-74
2023/01/19 01:04:05;;;;;;;1.95;1.00;;;;;;;20.09;34.89;99675.44;5046032;28;20037;-74
2023/01/19 01:06:30;;;;;;;1.98;1.00;;;;;;;20.17;34.82;99680.53;5024902;28;20622;-74
2023/01/19 01:08:55;;;;;;;2.35;1.05;;;;;;;19.95;34.85;99650.13;5039012;28;20037;-74
2023/01/19 01:11:21;;;;;;;1.65;0.85;;;;;;;20.11;34.84;99684.00;5042658;28;20040;-74
2023/01/19 01:13:47;;;;;;;2.03;1.20;;;;;;;20.08;34.83;99676.47;5017425;28;20045;-74
2023/01/19 01:16:14;;;;;;;1.70;0.80;;;;;;;20.12;34.66;99680.34;5033279;28;20099;-74
2023/01/19 01:18:40;;;;;;;0.75;0.70;;;;;;;20.10;34.88;99685.00;5036348;28;20053;-72
2023/01/19 01:21:06;;;;;;;2.30;0.75;;;;;;;20.09;34.86;99678.09;5035929;28;20470;-72
2023/01/19 01:23:32;;;;;;;0.75;0.70;;;;;;;20.11;34.86;99689.28;5039183;28;20505;-72
2023/01/19 01:25:58;;;;;;;1.45;0.93;;;;;;;20.14;34.73;99691.50;5037791;28;20056;-72
2023/01/19 01:28:23;;;;;;;0.40;0.40;;;;;;;20.08;34.78;99687.84;5034616;28;20044;-72
2023/01/19 01:30:55;;;;;;;1.73;0.77;;;;;;;20.09;34.81;99697.41;5037191;28;20183;-72
2023/01/19 01:33:22;;;;;;;1.20;0.77;;;;;;;20.05;34.92;99709.41;5038681;28;20386;-72
2023/01/19 01:35:48;;;;;;;1.27;0.70;;;;;;;20.02;34.96;99698.44;5025595;28;20119;-72
2023/01/19 01:38:13;;;;;;;1.55;0.68;;;;;;;20.07;34.82;99703.91;5036032;28;20040;-72
2023/01/19 01:40:39;;;;;;;2.10;1.00;;;;;;;19.97;35.09;99709.66;5038234;28;20055;-72
2023/01/19 01:43:13;;;;;;;1.38;0.88;;;;;;;20.02;34.84;99695.81;5041359;28;20100;-72
2023/01/19 01:45:40;;;;;;;1.17;0.73;;;;;;;20.02;34.85;99712.47;5040525;28;20104;-72
2023/01/19 01:48:08;;;;;;;1.08;0.77;;;;;;;19.99;34.93;99707.63;5034216;28;20088;-72
2023/01/19 01:51:22;;;;;;;1.15;0.52;;;;;;;19.97;35.01;99706.19;5021761;28;20373;-72
2023/01/19 01:53:27;;;;;;;0.85;0.80;;;;;;;20.03;34.96;99705.34;5020670;28;20120;-72
2023/01/19 01:55:53;;;;;;;1.55;0.70;;;;;;;20.01;34.97;99716.13;5026095;28;20390;-72
2023/01/19 01:58:18;;;;;;;1.27;0.63;;;;;;;19.95;35.09;99705.59;5030368;28;20044;-72
2023/01/19 02:03:28;;;;;;;0.55;0.52;;;;;;;19.91;35.18;99706.00;5014378;28;20072;-72
2023/01/19 02:05:59;;;;;;;0.80;0.80;;;;;;;19.91;35.12;99713.91;5022748;28;20038;-72
2023/01/19 02:14:03;;;;;;;0.82;0.57;;;;;;;19.89;35.22;99715.16;5018202;28;20029;-74
2023/01/19 02:16:29;;;;;;;0.75;0.35;;;;;;;19.91;35.12;99716.56;5022941;28;20041;-72
2023/01/19 02:18:56;;;;;;;0.47;0.45;;;;;;;19.97;35.00;99719.41;5022048;28;20484;-72
2023/01/19 02:22:02;;;;;;;1.50;0.50;;;;;;;19.82;35.22;99709.88;5014704;28;20050;-72
2023/01/19 02:24:28;;;;;;;0.68;0.63;;;;;;;19.94;35.01;99712.72;4953087;28;20129;-72
2023/01/19 02:26:55;;;;;;;0.45;0.43;;;;;;;19.92;35.02;99720.00;5009440;28;20496;-72
2023/01/19 02:29:23;;;;;;;0.55;0.55;;;;;;;19.87;35.09;99725.91;5023855;28;20078;-72
2023/01/19 02:31:48;;;;;;;0.47;0.47;;;;;;;19.96;34.99;99715.97;5000958;28;20049;-72
2023/01/19 02:34:17;;;;;;;0.65;0.60;;;;;;;19.80;35.11;99713.75;5026772;28;20026;-74
2023/01/19 02:36:53;;;;;;;0.60;0.60;;;;;;;19.90;35.14;99714.13;5017241;28;20061;-72
2023/01/19 02:39:33;;;;;;;0.60;0.52;;;;;;;19.88;34.93;99716.97;5023904;28;20045;-72
2023/01/19 02:42:04;;;;;;;0.82;0.40;;;;;;;19.87;35.16;99725.09;5013913;28;20579;-72
2023/01/19 02:44:32;;;;;;;0.88;0.63;;;;;;;19.71;35.37;99714.97;5022542;28;20650;-72
2023/01/19 02:46:58;;;;;;;0.98;0.60;;;;;;;19.82;35.29;99727.56;5028710;28;20069;-72
2023/01/19 02:49:27;;;;;;;0.43;0.30;;;;;;;19.82;35.26;99719.63;5020487;28;20075;-72
2023/01/19 02:51:53;;;;;;;0.30;0.30;;;;;;;19.78;35.24;99721.88;5023257;28;20041;-75
2023/01/19 02:54:49;;;;;;;1.15;0.60;;;;;;;19.77;35.30;99722.91;4982327;28;20058;-75
2023/01/19 02:57:34;;;;;;;0.85;0.52;;;;;;;19.83;35.18;99734.47;5011937;28;20037;-74
2023/01/19 03:00:17;;;;;;;1.80;0.60;;;;;;;19.88;35.12;99730.19;5014315;28;20053;-73
2023/01/19 03:03:02;;;;;;;1.00;0.93;;;;;;;19.87;35.11;99722.47;5026468;28;20037;-74
2023/01/19 03:05:38;;;;;;;1.13;0.70;;;;;;;19.79;35.26;99725.34;5006694;28;20049;-73
2023/01/19 03:08:21;;;;;;;0.47;0.47;;;;;;;19.76;35.14;99723.13;5019118;28;20120;-74
2023/01/19 03:10:57;;;;;;;0.77;0.60;;;;;;;19.78;35.29;99716.59;5022545;28;20072;-73
2023/01/19 03:13:49;;;;;;;0.82;0.68;;;;;;;19.84;35.22;99728.16;4999522;28;20049;-73
2023/01/19 03:16:20;;;;;;;0.57;0.40;;;;;;;19.81;35.26;99729.41;5023583;28;20037;-73
2023/01/19 03:18:52;;;;;;;0.80;0.65;;;;;;;19.70;35.32;99713.34;5017385;28;20048;-73
2023/01/19 03:21:22;;;;;;;1.10;0.90;;;;;;;19.78;35.29;99729.81;5025955;28;20132;-73
2023/01/19 03:23:49;;;;;;;0.50;0.50;;;;;;;19.73;35.30;99726.13;5021806;28;20083;-73
2023/01/19 03:26:21;;;;;;;1.65;0.52;;;;;;;19.71;35.40;99713.13;5016348;28;20048;-72
2023/01/19 03:28:48;;;;;;;1.35;0.50;;;;;;;19.74;35.35;99728.56;5027096;28;20068;-73
2023/01/19 03:31:18;;;;;;;0.57;0.32;;;;;;;19.76;35.25;99729.22;5024549;28;20479;-73
2023/01/19 03:33:49;;;;;;;0.30;0.30;;;;;;;19.67;35.46;99738.34;5019603;28;20069;-73
2023/01/19 03:36:21;;;;;;;1.10;0.73;;;;;;;19.64;35.46;99736.13;5022203;28;20044;-73
2023/01/19 03:38:49;;;;;;;0.20;0.20;;;;;;;19.74;35.27;99735.69;5016241;28;20073;-73
2023/01/19 03:41:19;;;;;;;1.02;0.50;;;;;;;19.69;35.42;99746.06;5024461;28;20033;-73
2023/01/19 03:43:47;;;;;;;0.47;0.40;;;;;;;19.73;35.36;99750.72;5021634;28;20029;-73
2023/01/19 03:46:16;;;;;;;0.52;0.52;;;;;;;19.70;35.28;99739.75;5021391;28;20045;-73
2023/01/19 03:48:42;;;;;;;1.15;0.60;;;;;;;19.67;35.47;99746.28;5029923;28;20441;-73
2023/01/19 03:51:09;;;;;;;1.48;1.08;;;;;;;19.67;35.39;99745.47;5047386;28;20119;-73
2023/01/19 03:53:35;;;;;;;1.95;0.57;;;;;;;19.63;35.32;99731.03;5039586;28;20061;-73
2023/01/19 03:56:01;;;;;;;0.68;0.50;;;;;;;19.63;35.57;99733.69;5039771;28;20033;-73
2023/01/19 03:58:27;;;;;;;0.30;0.30;;;;;;;19.64;35.42;99730.03;5044764;28;20118;-73
2023/01/19 04:00:53;;;;;;;1.30;0.60;;;;;;;19.60;35.43;99733.09;5039120;28;20109;-73
2023/01/19 04:03:18;;;;;;;0.73;0.50;;;;;;;19.70;35.11;99747.69;5044425;28;20501;-73
2023/01/19 04:05:44;;;;;;;1.95;0.68;;;;;;;19.75;35.33;99759.28;5037772;28;20032;-73
2023/01/19 04:08:10;;;;;;;1.05;0.60;;;;;;;19.65;35.33;99758.88;5040743;28;20669;-73
2023/01/19 04:10:36;;;;;;;0.75;0.57;;;;;;;19.67;35.49;99754.19;5039160;28;21837;-73
2023/01/19 04:13:03;;;;;;;1.08;0.77;;;;;;;19.69;35.46;99754.00;5039662;28;20047;-73
2023/01/19 04:15:29;;;;;;;0.93;0.90;;;;;;;19.65;35.53;99756.22;5034960;28;20075;-73
2023/01/19 04:17:58;;;;;;;0.30;0.30;;;;;;;19.67;35.46;99754.19;5042725;28;20145;-73
2023/01/19 04:20:26;;;;;;;0.60;0.60;;;;;;;19.53;35.64;99750.72;5039870;28;20659;-73
2023/01/19 04:22:53;;;;;;;0.47;0.47;;;;;;;19.70;35.43;99761.69;5040602;28;20048;-73
2023/01/19 04:25:18;;;;;;;1.33;0.68;;;;;;;19.60;35.54;99750.75;5037932;28;20395;-73
2023/01/19 04:27:44;;;;;;;0.75;0.50;;;;;;;19.55;35.64;99747.88;5042640;28;20036;-73
2023/01/19 04:30:10;;;;;;;0.55;0.45;;;;;;;19.67;35.51;99761.31;5022421;28;20045;-73
2023/01/19 04:32:36;;;;;;;0.45;0.45;;;;;;;19.68;35.45;99762.94;5039854;28;20045;-73
2023/01/19 04:35:01;;;;;;;1.15;0.85;;;;;;;19.61;35.57;99762.94;5040580;28;20041;-73
2023/01/19 04:37:27;;;;;;;0.60;0.32;;;;;;;19.61;35.66;99768.22;5023947;28;20511;-73
2023/01/19 04:39:52;;;;;;;0.50;0.50;;;;;;;19.54;35.58;99759.47;5041141;28;20041;-73
2023/01/19 04:42:18;;;;;;;0.98;0.50;;;;;;;19.64;35.54;99770.44;5035427;28;20545;-73
2023/01/19 04:44:44;;;;;;;1.60;0.80;;;;;;;19.62;35.63;99767.22;5040294;28;20446;-73
2023/01/19 04:47:10;;;;;;;0.50;0.50;;;;;;;19.68;35.34;99765.56;5041665;28;20037;-73
2023/01/19 04:49:39;;;;;;;0.60;0.60;;;;;;;19.64;35.52;99773.09;5037670;28;20856;-73
2023/01/19 04:52:05;;;;;;;0.55;0.40;;;;;;;19.47;35.65;99758.63;5019817;28;20119;-73
2023/01/19 04:54:31;;;;;;;1.90;0.75;;;;;;;19.61;35.53;99781.44;5040381;28;20111;-73
2023/01/19 04:56:56;;;;;;;1.08;0.70;;;;;;;19.66;35.69;99792.19;5035509;28;20054;-73
2023/01/19 04:59:22;;;;;;;1.45;0.73;;;;;;;19.55;35.59;99790.13;5038269;28;20053;-73
2023/01/19 05:01:47;;;;;;;1.30;0.38;;;;;;;19.50;35.69;99795.19;5039038;28;20581;-73
2023/01/19 05:04:13;;;;;;;0.38;0.38;;;;;;;19.54;35.76;99802.53;5037289;28;20049;-73
2023/01/19 05:06:38;;;;;;;0.40;0.40;;;;;;;19.51;35.74;99796.81;5037592;28;20052;-73
2023/01/19 05:09:06;;;;;;;0.57;0.40;;;;;;;19.57;35.63;99796.06;5040656;28;20114;-73
2023/01/19 05:11:32;;;;;;;1.00;0.50;;;;;;;19.50;35.78;99801.28;5040144;28;20039;-73
2023/01/19 05:13:57;;;;;;;0.15;0.10;;;;;;;19.44;35.75;99802.09;5041217;28;20041;-73
2023/01/19 05:16:23;;;;;;;0.75;0.32;;;;;;;19.49;35.67;99804.13;5031176;28;20099;-73
2023/01/19 05:18:48;;;;;;;0.68;0.40;;;;;;;19.45;35.81;99813.47;5029757;28;20041;-73
2023/01/19 05:21:14;;;;;;;0.93;0.85;;;;;;;19.48;35.79;99827.09;5038321;28;20418;-73
2023/01/19 05:23:40;;;;;;;0.88;0.60;;;;;;;19.51;35.79;99821.41;5039426;28;20029;-73
2023/01/19 05:26:05;;;;;;;1.30;0.40;;;;;;;19.47;35.81;99825.47;5038018;28;20041;-73
2023/01/19 05:28:32;;;;;;;1.05;0.60;;;;;;;19.43;35.88;99826.06;5042368;28;20044;-73
2023/01/19 05:30:57;;;;;;;0.47;0.30;;;;;;;19.47;35.84;99830.75;5040189;28;20394;-73
2023/01/19 05:33:24;;;;;;;0.73;0.55;;;;;;;19.21;35.98;99813.03;5038425;28;20033;-73
2023/01/19 05:35:53;;;;;;;0.68;0.47;;;;;;;19.46;35.92;99839.69;5039410;28;20148;-73
2023/01/19 05:38:20;;;;;;;0.70;0.60;;;;;;;19.47;35.76;99846.59;5037375;28;20033;-73
2023/01/19 05:40:45;;;;;;;0.85;0.43;;;;;;;19.48;35.88;99857.97;5037389;28;20865;-73
2023/01/19 05:43:11;;;;;;;0.57;0.57;;;;;;;19.45;35.81;99855.72;5031558;28;20041;-73
2023/01/19 05:45:37;;;;;;;0.82;0.50;;;;;;;19.40;36.15;99852.88;5036962;28;20555;-73
2023/01/19 05:48:04;;;;;;;0.90;0.35;;;;;;;19.46;35.91;99863.44;5040847;28;20057;-73
2023/01/19 05:50:30;;;;;;;0.98;0.57;;;;;;;19.46;35.84;99867.91;5040866;28;20071;-73
2023/01/19 05:52:55;;;;;;;0.40;0.40;;;;;;;19.46;35.82;99867.91;5038633;28;20083;-73
2023/01/19 05:55:21;;;;;;;0.30;0.30;;;;;;;19.42;35.82;99867.50;5039591;28;20755;-73
2023/01/19 05:57:46;;;;;;;1.40;0.68;;;;;;;19.44;35.92;99883.13;5035204;28;20053;-73
2023/01/19 06:00:13;;;;;;;0.47;0.40;;;;;;;19.44;35.95;99878.66;5019596;28;20038;-73
2023/01/19 06:02:38;;;;;;;0.40;0.40;;;;;;;19.27;35.94;99870.31;5040753;28;20036;-73
2023/01/19 06:05:04;;;;;;;1.40;0.50;;;;;;;19.48;35.82;99893.09;5037895;28;20442;-73
2023/01/19 06:07:33;;;;;;;0.60;0.50;;;;;;;19.40;35.87;99897.75;5041168;28;20055;-73
2023/01/19 06:09:59;;;;;;;1.70;0.73;;;;;;;19.46;35.80;99886.38;5042842;28;20494;-73
2023/01/19 06:12:24;;;;;;;0.40;0.40;;;;;;;19.28;35.88;99874.56;5034458;28;20048;-73
2023/01/19 06:14:50;;;;;;;0.60;0.60;;;;;;;19.39;36.13;99880.25;5039245;28;20029;-73
2023/01/19 06:17:16;;;;;;;1.05;0.40;;;;;;;19.29;35.98;99883.28;5039380;28;20049;-73
2023/01/19 06:19:41;;;;;;;0.60;0.60;;;;;;;19.38;35.91;99876.00;5037905;28;20099;-73
2023/01/19 06:22:07;;;;;;;0.95;0.60;;;;;;;19.30;35.89;99888.38;5039216;28;20041;-73
2023/01/19 06:24:33;;;;;;;0.55;0.32;;;;;;;19.38;35.93;99890.00;5035207;28;20385;-73
2023/01/19 06:26:59;;;;;;;0.85;0.65;;;;;;;19.35;35.98;99892.22;5039104;28;20040;-73
2023/01/19 06:29:25;;;;;;;0.80;0.50;;;;;;;19.30;36.15;99893.66;5037310;28;20037;-73
2023/01/19 06:31:51;;;;;;;0.80;0.68;;;;;;;19.40;35.87;99897.75;5043748;28;20045;-73
2023/01/19 06:34:16;;;;;;;0.85;0.50;;;;;;;19.36;36.09;99909.69;5043258;28;20095;-73
2023/01/19 06:36:42;;;;;;;1.55;0.90;;;;;;;19.51;35.86;99913.81;5042067;28;20071;-73
2023/01/19 06:39:08;;;;;;;1.50;0.50;;;;;;;20.78;34.12;99911.00;5041647;28;20056;-74
2023/01/19 06:41:35;;;;;;;0.80;0.57;;;;;;;22.11;31.68;99908.53;5043546;28;20040;-74
2023/01/19 06:44:01;;;;;;;0.55;0.50;;;;;;;22.99;30.35;99926.06;5038051;28;22019;-73
2023/01/19 06:46:26;;;;;;;1.77;0.63;;;;;;;23.45;30.03;99936.91;5043318;28;20044;-73
2023/01/19 06:48:53;;;;;;;0.40;0.38;;;;;;;23.30;30.03;99933.03;5025815;28;20107;-74
2023/01/19 06:51:18;;;;;;;0.82;0.50;;;;;;;23.12;30.27;99944.47;5045317;28;20390;-73
2023/01/19 06:53:44;;;;;;;0.32;0.20;;;;;;;22.87;30.62;99941.91;5039046;28;20045;-74
2023/01/19 06:56:09;;;;;;;0.55;0.47;;;;;;;22.63;31.32;99951.53;5040949;28;20037;-74
2023/01/19 06:58:35;;;;;;;0.80;0.55;;;;;;;22.35;31.45;99945.88;5035883;28;20487;-73
2023/01/19 07:01:02;;;;;;;0.68;0.38;;;;;;;22.17;32.00;99954.56;5016970;28;20052;-74
2023/01/19 07:03:28;;;;;;;0.40;0.38;;;;;;;22.02;32.49;99960.16;5046383;28;20029;-74
2023/01/19 07:05:55;;;;;;;0.65;0.45;;;;;;;21.84;32.75;99968.84;5043200;28;20036;-74
2023/01/19 07:08:22;;;;;;;0.93;0.65;;;;;;;21.63;32.78;99977.94;5040977;28;20064;-74
2023/01/19 07:10:48;;;;;;;0.50;0.30;;;;;;;21.48;33.11;99985.34;5044434;28;20504;-73
2023/01/19 07:13:13;;;;;;;1.30;0.70;;;;;;;21.32;33.59;99981.31;5042114;28;20033;-73
2023/01/19 07:15:39;;;;;;;0.77;0.50;;;;;;;21.26;33.81;99989.31;5044456;28;20124;-73
2023/01/19 07:18:06;;;;;;;0.75;0.50;;;;;;;21.17;33.90;99995.81;5044440;28;20053;-74
2023/01/19 07:20:36;;;;;;;1.30;0.50;;;;;;;21.07;34.16;99997.06;5041848;28;20100;-73
2023/01/19 07:23:02;;;;;;;0.28;0.28;;;;;;;21.05;34.10;100000.94;5039309;28;20628;-73
2023/01/19 07:25:28;;;;;;;0.68;0.50;;;;;;;20.92;34.47;100006.25;5034764;28;20048;-73
2023/01/19 07:28:00;;;;;;;0.20;0.17;;;;;;;20.77;34.74;100001.19;5040179;28;20091;-73
2023/01/19 07:30:26;;;;;;;1.10;0.52;;;;;;;20.54;34.88;99998.97;5041767;28;20553;-74
2023/01/19 07:32:56;;;;;;;0.40;0.30;;;;;;;20.46;35.13;100013.19;5041427;28;20025;-74
2023/01/19 07:35:22;;;;;;;1.17;0.65;;;;;;;20.47;35.16;100014.03;5029200;28;20045;-73
2023/01/19 07:37:48;;;;;;;0.63;0.40;;;;;;;20.43;35.16;100018.91;5037563;28;20090;-73
2023/01/19 07:40:13;;;;;;;0.85;0.50;;;;;;;20.46;35.22;100029.06;5038053;28;20092;-73
2023/01/19 07:42:39;;;;;;;0.43;0.35;;;;;;;20.40;35.23;100029.84;5041152;28;20040;-74
2023/01/19 07:45:05;;;;;;;0.43;0.35;;;;;;;20.40;35.37;100035.13;5020685;28;20029;-74
2023/01/19 07:47:31;;;;;;;2.05;0.60;;;;;;;20.44;35.37;100041.69;5039282;28;20966;-74
2023/01/19 07:49:56;;;;;;;1.52;0.55;;;;;;;20.49;35.22;100046.38;5036607;28;20038;-73
2023/01/19 07:52:22;;;;;;;1.13;0.70;;;;;;;20.44;35.23;100051.44;5044123;28;20040;-73
2023/01/19 07:54:49;;;;;;;0.35;0.30;;;;;;;20.41;35.24;100054.50;5035944;28;20036;-73
2023/01/19 07:57:16;;;;;;;1.52;0.70;;;;;;;20.48;35.10;100056.16;5020904;28;20048;-73
2023/01/19 07:59:42;;;;;;;1.42;0.73;;;;;;;20.38;35.25;100068.91;5037913;28;20048;-73
2023/01/19 08:02:09;;;;;;;1.20;0.60;;;;;;;20.41;35.14;100070.38;5032633;28;20036;-74
2023/01/19 08:04:34;;;;;;;2.33;0.55;;;;;;;20.30;35.33;100058.53;5034631;28;20199;-73
2023/01/19 08:07:00;;;;;;;1.58;0.60;;;;;;;20.32;35.36;100077.66;5036008;28;20049;-72
2023/01/19 08:09:26;;;;;;;1.02;0.55;;;;;;;20.35;35.19;100071.16;5039072;28;20493;-73
2023/01/19 08:11:51;;;;;;;1.75;0.80;;;;;;;20.39;35.17;100085.59;5036608;28;20491;-74
2023/01/19 08:14:17;;;;;;;1.50;0.60;;;;;;;20.32;35.16;100095.34;5031538;28;20038;-73
2023/01/19 08:16:42;;;;;;;1.50;0.70;;;;;;;20.27;35.33;100095.94;5035386;28;20033;-73
2023/01/19 08:19:08;;;;;;;3.40;1.23;;;;;;;20.26;35.18;100085.56;5035920;28;20044;-72
2023/01/19 08:21:35;;;;;;;0.73;0.45;;;;;;;20.35;35.09;100108.16;5038447;28;20120;-73
2023/01/19 08:24:00;;;;;;;1.77;0.60;;;;;;;20.25;35.19;100105.88;5038037;28;20040;-72
2023/01/19 08:26:31;;;;;;;3.10;1.10;;;;;;;20.34;35.04;100109.19;5015730;28;20041;-72
2023/01/19 08:29:00;;;;;;;2.47;1.10;;;;;;;20.79;34.20;100102.34;5039818;28;20045;-73
2023/01/19 08:31:26;;;;;;;2.20;0.90;;;;;;;21.22;33.43;100104.56;5037826;28;20527;-72
2023/01/19 08:33:51;;;;;;;1.95;1.00;;;;;;;21.36;33.02;100109.69;5032386;28;20045;-72
2023/01/19 08:36:17;;;;;;;2.72;0.65;;;;;;;21.28;33.48;100117.00;5030396;28;20053;-73
2023/01/19 08:38:44;;;;;;;1.98;1.30;;;;;;;21.06;33.67;100117.22;5034422;28;20506;-74
2023/01/19 08:41:11;;;;;;;2.75;0.63;;;;;;;21.02;34.12;100125.78;5031707;28;20229;-73
2023/01/19 08:43:37;;;;;;;1.33;0.77;;;;;;;20.96;34.04;100127.38;5037822;28;20127;-73
2023/01/19 08:46:03;;;;;;;2.10;1.25;;;;;;;20.86;34.34;100128.81;5037910;28;20090;-73
2023/01/19 08:48:28;;;;;;;1.25;0.68;;;;;;;20.74;34.27;100139.19;5036191;28;20055;-73
2023/01/19 08:50:54;;;;;;;2.47;1.30;;;;;;;20.57;34.83;100151.16;5034428;28;20037;-73
2023/01/19 08:53:22;;;;;;;2.40;0.73;;;;;;;20.41;35.02;100142.56;5036051;28;20041;-72
2023/01/19 08:55:49;;;;;;;1.58;0.63;;;;;;;20.33;35.09;100152.50;5036466;28;20050;-73
2023/01/19 08:58:15;;;;;;;2.08;0.75;;;;;;;20.35;35.07;100159.22;5042383;28;20040;-73
2023/01/19 09:00:41;;;;;;;3.33;0.88;;;;;;;20.35;35.16;100158.41;5034673;28;20414;-73
2023/01/19 09:03:10;;;;;;;1.10;0.50;;;;;;;20.39;34.87;100159.63;5036795;28;20049;-73
2023/01/19 09:05:37;;;;;;;2.40;0.90;;;;;;;20.39;34.83;100164.91;5038118;28;20033;-73
2023/01/19 09:08:07;;;;;;;2.80;0.93;;;;;;;20.38;34.89;100169.41;5039437;28;20060;-73
2023/01/19 09:10:36;;;;;;;2.10;1.00;;;;;;;20.37;34.87;100177.53;5035794;28;20760;-73
2023/01/19 09:13:09;;;;;;;2.95;1.10;;;;;;;20.44;34.54;100178.38;5034770;28;20095;-73
2023/01/19 09:15:36;;;;;;;2.22;0.90;;;;;;;20.60;34.34;100182.50;5023349;28;20521;-72
2023/01/19 09:18:03;;;;;;;2.70;1.02;;;;;;;20.52;34.60;100186.97;5036170;28;20057;-73
2023/01/19 09:20:30;;;;;;;2.58;0.98;;;;;;;20.59;34.47;100194.09;5037955;28;20040;-73
2023/01/19 09:22:57;;;;;;;2.97;1.15;;;;;;;20.37;34.90;100190.75;5033091;28;20049;-73
2023/01/19 09:25:23;;;;;;;2.60;1.17;;;;;;;20.40;34.94;100208.84;5036872;28;20490;-73
2023/01/19 09:27:49;;;;;;;2.05;0.93;;;;;;;20.18;35.17;100197.59;5034193;28;20044;-73
2023/01/19 09:30:15;;;;;;;2.40;0.90;;;;;;;20.30;34.98;100208.44;5039545;28;20058;-73
2023/01/19 09:32:41;;;;;;;1.95;0.80;;;;;;;20.33;35.07;100219.41;5032720;28;20049;-73
2023/01/19 09:35:07;;;;;;;2.58;1.13;;;;;;;20.32;34.86;100209.03;5034224;28;20048;-73
2023/01/19 09:37:33;;;;;;;2.42;1.10;;;;;;;20.41;34.76;100219.25;5040314;28;20083;-73
2023/01/19 09:39:58;;;;;;;1.63;1.10;;;;;;;20.44;34.67;100212.75;5035733;28;20048;-73
2023/01/19 09:42:41;;;;;;;3.50;1.10;;;;;;;20.43;34.50;100227.00;5021825;28;20491;-72
2023/01/19 09:45:15;;;;;;;2.28;1.65;;;;;;;20.42;34.58;100228.84;5036503;28;20037;-72
2023/01/19 09:47:41;;;;;;;2.47;1.13;;;;;;;20.37;34.61;100228.59;5019941;28;20041;-73
2023/01/19 09:50:19;;;;;;;3.45;1.17;;;;;;;20.29;34.77;100228.78;5039656;28;20047;-72
2023/01/19 09:52:55;;;;;;;1.88;1.00;;;;;;;20.16;34.62;100199.63;5037801;28;20041;-72
2023/01/19 09:55:25;;;;;;;1.85;1.02;;;;;;;20.38;34.65;100246.09;5037395;28;20044;-73
2023/01/19 09:57:50;;;;;;;;;;;;;;;20.41;34.56;100237.78;5032145;28;20029;-73
2023/01/19 10:00:17;;;;;;;2.90;1.35;;;;;;;20.38;34.68;100239.97;5034286;28;20360;-73
2023/01/19 10:02:51;;;;;;;3.28;1.20;;;;;;;20.91;33.88;100242.81;5025978;28;20029;-73
2023/01/19 10:05:28;;;;;;;3.17;1.20;;;;;;;21.48;32.65;100241.47;5034244;28;21350;-72
2023/01/19 10:08:10;;;;;;;4.00;1.63;;;;;;;21.68;32.48;100239.59;5035990;28;20040;-72
2023/01/19 10:10:41;;;;;;;3.72;1.50;;;;;;;21.62;32.64;100246.56;5020051;28;20021;-72
2023/01/19 10:13:19;;;;;;;3.13;1.30;;;;;;;21.51;32.67;100247.16;5034674;28;20098;-72
2023/01/19 10:15:53;;;;;;;4.38;1.60;;;;;;;21.38;32.87;100260.44;5032806;28;20079;-72
2023/01/19 10:18:34;;;;;;;3.55;1.55;;;;;;;21.27;32.79;100255.72;5027227;28;20505;-72
2023/01/19 10:21:10;;;;;;;3.55;1.40;;;;;;;21.23;33.20;100257.94;5021711;28;20032;-72
2023/01/19 10:23:45;;;;;;;3.13;1.85;;;;;;;21.05;33.78;100268.31;5034210;28;20021;-72
2023/01/19 10:26:19;;;;;;;4.35;1.60;;;;;;;20.88;33.80;100278.44;5033123;28;20843;-74
2023/01/19 10:28:46;;;;;;;3.85;1.70;;;;;;;20.74;33.96;100263.53;5036261;28;20041;-72
2023/01/19 10:31:13;;;;;;;4.72;1.77;;;;;;;20.50;34.60;100270.19;5014728;28;20037;-71
2023/01/19 10:33:38;;;;;;;3.70;1.70;;;;;;;20.50;34.53;100267.53;5014618;28;20036;-72
2023/01/19 10:36:14;;;;;;;4.05;1.65;;;;;;;20.47;34.42;100279.31;5033571;28;20036;-71
2023/01/19 10:38:39;;;;;;;2.25;1.38;;;;;;;20.32;34.91;100283.09;5038667;28;20049;-71
2023/01/19 10:41:13;;;;;;;3.40;1.42;;;;;;;20.43;34.40;100278.06;5034322;28;20029;-71
2023/01/19 10:43:40;;;;;;;4.10;1.90;;;;;;;20.35;34.73;100288.78;5039560;28;20518;-73
2023/01/19 10:46:30;;;;;;;6.10;1.90;;;;;;;21.00;33.87;100286.59;4977379;28;20098;-68
2023/01/19 10:48:56;;;;;;;4.57;2.10;;;;;;;21.24;33.30;100272.84;5038316;28;20502;-72
2023/01/19 10:51:22;;;;;;;5.78;1.83;;;;;;;21.32;33.15;100267.34;5035294;28;20041;-71
2023/01/19 10:53:59;;;;;;;2.35;1.10;;;;;;;21.46;33.32;100277.94;5036204;28;20040;-71
2023/01/19 10:56:34;;;;;;;4.85;1.75;;;;;;;21.51;33.41;100271.00;5032473;28;20364;-73
2023/01/19 10:59:02;;;;;;;2.90;1.48;;;;;;;21.53;33.17;100284.84;5037520;28;20116;-72
2023/01/19 11:01:29;;;;;;;5.00;1.63;;;;;;;21.57;33.25;100275.50;5020668;28;20040;-72
2023/01/19 11:04:04;;;;;;;3.03;1.60;;;;;;;21.61;33.50;100282.03;5021303;28;20514;-71
2023/01/19 11:06:31;;;;;;;3.17;1.45;;;;;;;21.68;33.16;100290.78;5040203;28;20620;-71
2023/01/19 11:09:20;;;;;;;5.15;1.80;;;;;;;21.74;33.03;100283.03;5037573;28;20041;-72
2023/01/19 11:11:50;;;;;;;3.72;1.70;;;;;;;21.53;33.52;100281.41;5037584;28;20037;-73
2023/01/19 11:14:19;;;;;;;4.47;1.75;;;;;;;21.49;33.60;100277.53;5035015;28;20545;-75
2023/01/19 11:16:48;;;;;;;3.35;1.52;;;;;;;21.69;33.46;100281.81;5032970;28;20067;-73
2023/01/19 11:19:23;;;;;;;3.55;1.67;;;;;;;21.85;32.89;100285.88;5004983;28;20032;-71
2023/01/19 11:21:49;;;;;;;3.42;1.50;;;;;;;21.81;33.30;100289.13;5041605;28;20052;-75
2023/01/19 11:24:15;;;;;;;2.92;1.38;;;;;;;21.56;33.64;100278.38;5037102;28;20041;-75
2023/01/19 11:26:46;;;;;;;3.55;1.48;;;;;;;21.42;33.25;100296.09;5022621;28;20052;-75
2023/01/19 11:29:21;;;;;;;2.53;1.15;;;;;;;21.35;33.91;100288.09;5036278;28;20061;-74
2023/01/19 11:31:47;;;;;;;3.30;1.30;;;;;;;21.31;33.76;100286.06;5037363;28;20498;-74
2023/01/19 11:34:23;;;;;;;4.55;1.70;;;;;;;21.28;33.70;100281.19;5019047;28;20044;-74
2023/01/19 11:37:04;;;;;;;3.83;1.60;;;;;;;21.21;33.80;100280.34;5017565;28;20234;-74
2023/01/19 11:39:44;;;;;;;4.90;1.85;;;;;;;21.25;33.86;100287.72;5035263;28;20699;-73
2023/01/19 11:42:11;;;;;;;4.40;1.77;;;;;;;21.25;33.67;100287.72;5033982;28;20037;-73
2023/01/19 11:44:58;;;;;;;5.45;1.60;;;;;;;21.22;33.76;100293.38;5036993;28;20728;-74
2023/01/19 11:47:29;;;;;;;5.25;1.90;;;;;;;21.21;33.71;100291.75;5038997;28;20044;-74